Time;durP1;ratioP1;P1;durP2;ratioP2;P2;SDS_P1;SDS_P2;PMS_P1;PMS_P2;Temp;Humidity;BMP_temperature;BMP_pressure;BME280_temperature;BME280_humidity;BME280_pressure;Samples;Min_cycle;Max_cycle;Signal;HPM_P1;HPM_P2
2023/12/25 00:01:01;;;;;;;3.22;2.55;;;23.60;49.00;;;;;;6162850;28;82578;-56
2023/12/25 00:04:01;;;;;;;4.57;2.33;;;23.50;48.80;;;;;;6158075;28;80839;-54
2023/12/25 00:07:02;;;;;;;3.70;2.60;;;23.60;48.70;;;;;;6163325;28;82629;-68
2023/12/25 00:10:02;;;;;;;4.40;2.45;;;23.60;48.70;;;;;;6164672;28;81098;-68
2023/12/25 00:13:03;;;;;;;2.72;2.03;;;23.60;48.50;;;;;;6163273;28;82100;-69
2023/12/25 00:16:03;;;;;;;3.30;2.08;;;23.60;48.40;;;;;;6162155;28;80868;-69
2023/12/25 00:19:04;;;;;;;2.88;2.25;;;23.60;48.40;;;;;;6158796;28;85472;-70
2023/12/25 00:22:05;;;;;;;4.05;1.90;;;23.60;48.70;;;;;;6155868;28;80873;-71
2023/12/25 00:25:05;;;;;;;2.40;1.70;;;23.60;48.50;;;;;;6148149;28;81353;-56
2023/12/25 00:28:06;;;;;;;2.35;1.63;;;23.50;48.40;;;;;;6153112;28;80781;-59
2023/12/25 00:31:07;;;;;;;4.20;1.92;;;23.60;48.40;;;;;;6154285;28;83719;-59
2023/12/25 00:34:08;;;;;;;1.92;1.70;;;23.60;48.40;;;;;;6143620;28;80448;-59
2023/12/25 00:37:08;;;;;;;4.32;1.60;;;23.50;48.40;;;;;;6161780;28;81957;-59
2023/12/25 00:40:09;;;;;;;3.63;2.03;;;23.60;48.50;;;;;;6162176;28;81483;-59
2023/12/25 00:43:09;;;;;;;1.88;1.67;;;23.50;48.60;;;;;;6162299;28;82318;-60
2023/12/25 00:46:10;;;;;;;1.88;1.40;;;23.50;48.70;;;;;;6159864;28;83655;-53
2023/12/25 00:49:11;;;;;;;2.13;1.40;;;23.60;48.80;;;;;;6157927;28;81797;-54
2023/12/25 00:52:14;;;;;;;3.75;1.98;;;23.50;48.90;;;;;;6159638;28;82070;-54
2023/12/25 00:55:14;;;;;;;4.53;1.20;;;23.60;48.90;;;;;;6157576;28;82722;-55
2023/12/25 00:58:15;;;;;;;1.65;1.50;;;23.60;49.00;;;;;;6162267;28;81056;-53
2023/12/25 01:01:15;;;;;;;3.17;1.75;;;23.50;49.50;;;;;;6155144;28;82481;-54
2023/12/25 01:04:16;;;;;;;2.20;1.60;;;23.50;49.80;;;;;;6156140;28;80850;-62
2023/12/25 01:07:16;;;;;;;2.97;1.70;;;23.60;49.20;;;;;;6158743;28;83524;-61
2023/12/25 01:10:17;;;;;;;2.55;1.90;;;23.60;49.30;;;;;;6161357;28;80980;-62
2023/12/25 01:13:17;;;;;;;1.75;1.58;;;23.60;49.20;;;;;;6163489;28;81968;-63
2023/12/25 01:16:18;;;;;;;2.88;1.65;;;23.50;49.20;;;;;;6159678;28;81006;-64
2023/12/25 01:19:19;;;;;;;7.18;2.63;;;23.50;49.10;;;;;;6161884;28;82417;-65
2023/12/25 01:22:20;;;;;;;1.50;1.35;;;23.50;49.20;;;;;;6162088;28;81372;-59
2023/12/25 01:25:20;;;;;;;2.55;1.60;;;23.50;49.40;;;;;;6161532;28;81224;-60
2023/12/25 01:28:21;;;;;;;3.67;1.15;;;23.50;49.10;;;;;;6157833;28;81463;-60
2023/12/25 01:31:21;;;;;;;3.60;2.05;;;23.50;49.40;;;;;;6146348;28;81418;-60
2023/12/25 01:34:22;;;;;;;1.88;1.60;;;23.50;49.40;;;;;;6143484;28;81224;-61
2023/12/25 01:37:22;;;;;;;2.47;1.20;;;23.50;49.80;;;;;;6153142;28;81025;-59
2023/12/25 01:40:23;;;;;;;2.13;1.50;;;23.50;49.60;;;;;;6144066;28;83871;-63
2023/12/25 01:43:24;;;;;;;1.83;1.60;;;23.50;49.60;;;;;;6162013;28;81021;-65
2023/12/25 01:46:24;;;;;;;1.75;1.17;;;23.50;49.80;;;;;;6157802;28;81420;-65
2023/12/25 01:49:25;;;;;;;1.98;1.50;;;23.50;50.10;;;;;;6157189;28;81449;-68
2023/12/25 01:52:25;;;;;;;1.80;1.50;;;23.50;50.20;;;;;;6158981;28;82413;-66
2023/12/25 01:55:27;;;;;;;1.45;0.88;;;23.50;49.60;;;;;;6156348;28;81004;-65
2023/12/25 01:58:27;;;;;;;1.65;1.38;;;23.50;50.20;;;;;;6171305;28;82027;-64
2023/12/25 02:01:28;;;;;;;3.35;1.60;;;23.50;50.00;;;;;;6170303;28;81518;-64
2023/12/25 02:04:28;;;;;;;3.75;1.35;;;23.50;49.50;;;;;;6162153;28;80754;-65
2023/12/25 02:07:29;;;;;;;1.90;1.42;;;23.50;49.30;;;;;;6171472;28;82746;-63
2023/12/25 02:10:29;;;;;;;1.30;1.20;;;23.50;49.40;;;;;;6168793;28;81582;-63
2023/12/25 02:13:30;;;;;;;1.10;1.00;;;23.50;49.70;;;;;;6174534;28;80972;-64
2023/12/25 02:16:31;;;;;;;2.05;1.65;;;23.50;49.70;;;;;;6187472;28;82037;-55
2023/12/25 02:19:31;;;;;;;1.52;1.38;;;23.50;49.80;;;;;;6173127;28;83427;-57
2023/12/25 02:22:32;;;;;;;1.42;1.33;;;23.50;49.40;;;;;;6174798;28;81660;-56
2023/12/25 02:25:32;;;;;;;1.50;1.00;;;23.40;49.30;;;;;;6173878;28;80934;-57
2023/12/25 02:28:33;;;;;;;2.20;1.63;;;23.40;49.30;;;;;;6172917;28;82499;-56
2023/12/25 02:31:34;;;;;;;1.58;1.27;;;23.40;49.20;;;;;;6164129;28;81404;-55
2023/12/25 02:34:37;;;;;;;1.60;1.38;;;23.40;49.20;;;;;;6165708;28;85641;-56
2023/12/25 02:37:38;;;;;;;1.95;1.52;;;23.40;49.30;;;;;;6160685;28;80566;-57
2023/12/25 02:40:41;;;;;;;1.40;1.20;;;23.40;49.50;;;;;;6167593;28;81015;-56
2023/12/25 02:43:42;;;;;;;1.90;1.40;;;23.30;49.40;;;;;;6183734;28;81908;-55
2023/12/25 02:46:42;;;;;;;1.60;1.35;;;23.40;49.50;;;;;;6157975;28;81299;-55
2023/12/25 02:49:43;;;;;;;3.13;1.50;;;23.40;49.50;;;;;;6157644;28;81034;-57
2023/12/25 02:52:43;;;;;;;1.42;1.20;;;23.40;49.40;;;;;;6165092;28;81508;-53
2023/12/25 02:55:45;;;;;;;3.72;2.65;;;23.40;49.40;;;;;;6151077;28;80665;-53
2023/12/25 02:58:45;;;;;;;1.70;1.20;;;23.40;49.50;;;;;;6149755;28;81850;-56
2023/12/25 03:01:45;;;;;;;1.58;1.30;;;23.40;49.50;;;;;;6161001;28;80342;-56
2023/12/25 03:04:46;;;;;;;1.60;1.35;;;23.50;49.60;;;;;;6156445;28;81518;-55
2023/12/25 03:07:46;;;;;;;2.83;2.03;;;23.50;49.60;;;;;;6157437;28;83809;-56
2023/12/25 03:10:47;;;;;;;3.90;1.55;;;23.40;49.50;;;;;;6167714;28;80435;-59
2023/12/25 03:13:47;;;;;;;2.75;2.05;;;23.40;49.70;;;;;;6175407;28;80295;-60
2023/12/25 03:16:48;;;;;;;2.55;1.80;;;23.50;49.60;;;;;;6172281;28;82137;-59
2023/12/25 03:19:49;;;;;;;1.80;1.40;;;23.50;49.60;;;;;;6177790;28;81929;-59
2023/12/25 03:22:49;;;;;;;1.58;1.40;;;23.50;49.60;;;;;;6175554;28;80847;-59
2023/12/25 03:25:50;;;;;;;2.97;1.95;;;23.50;49.50;;;;;;6152268;28;80259;-60
2023/12/25 03:28:51;;;;;;;1.42;1.23;;;23.50;49.60;;;;;;6174016;28;83032;-61
2023/12/25 03:31:52;;;;;;;1.23;1.13;;;23.50;49.80;;;;;;6161462;28;80633;-61
2023/12/25 03:34:52;;;;;;;2.45;1.67;;;23.50;49.60;;;;;;6177908;28;81930;-61
2023/12/25 03:37:53;;;;;;;1.23;1.13;;;23.50;49.80;;;;;;6178940;28;81355;-60
2023/12/25 03:40:53;;;;;;;1.30;1.20;;;23.50;49.70;;;;;;6177484;28;80573;-60
2023/12/25 03:43:54;;;;;;;1.63;1.00;;;23.50;49.50;;;;;;6172455;28;81741;-61
2023/12/25 03:46:54;;;;;;;1.52;1.00;;;23.50;49.50;;;;;;6174532;28;83318;-60
2023/12/25 03:49:55;;;;;;;0.95;0.80;;;23.50;49.50;;;;;;6172619;28;80853;-61
2023/12/25 03:52:55;;;;;;;1.33;0.80;;;23.50;49.40;;;;;;6173082;28;80597;-61
2023/12/25 03:55:56;;;;;;;0.88;0.88;;;23.40;49.30;;;;;;6171029;28;81438;-60
2023/12/25 03:58:56;;;;;;;1.25;1.15;;;23.40;49.40;;;;;;6163899;28;81441;-60
2023/12/25 04:01:57;;;;;;;1.10;0.90;;;23.40;49.30;;;;;;6190857;28;81904;-59
2023/12/25 04:04:57;;;;;;;1.23;0.80;;;23.40;49.30;;;;;;6176532;28;81724;-60
2023/12/25 04:07:58;;;;;;;0.60;0.60;;;23.40;49.40;;;;;;6175374;28;82421;-62
2023/12/25 04:10:58;;;;;;;1.05;0.70;;;23.50;49.50;;;;;;6175513;28;81766;-60
2023/12/25 04:13:59;;;;;;;0.95;0.73;;;23.50;49.60;;;;;;6177361;28;80167;-61
2023/12/25 04:17:00;;;;;;;3.50;0.90;;;23.50;49.40;;;;;;6175656;28;82972;-60
2023/12/25 04:20:00;;;;;;;0.82;0.77;;;23.50;49.20;;;;;;6175841;28;83480;-60
2023/12/25 04:23:01;;;;;;;0.98;0.85;;;23.50;49.40;;;;;;6178108;28;81395;-59
2023/12/25 04:26:02;;;;;;;0.77;0.68;;;23.50;49.30;;;;;;6176856;28;83100;-69
2023/12/25 04:29:02;;;;;;;0.75;0.75;;;23.50;49.40;;;;;;6176886;28;83202;-68
2023/12/25 04:32:03;;;;;;;0.50;0.50;;;23.50;49.20;;;;;;6171762;28;80455;-66
2023/12/25 04:35:03;;;;;;;0.70;0.70;;;23.50;49.30;;;;;;6175709;28;83236;-66
2023/12/25 04:38:04;;;;;;;0.60;0.60;;;23.60;49.40;;;;;;6175746;28;82756;-66
2023/12/25 04:41:04;;;;;;;0.60;0.60;;;23.50;49.40;;;;;;6176546;28;83554;-68
2023/12/25 04:44:05;;;;;;;0.68;0.68;;;23.60;49.50;;;;;;6179049;28;80828;-60
2023/12/25 04:47:05;;;;;;;0.60;0.60;;;23.50;49.50;;;;;;6164648;28;83698;-60
2023/12/25 04:50:06;;;;;;;0.50;0.50;;;23.60;49.50;;;;;;6159245;28;82922;-60
2023/12/25 04:53:08;;;;;;;0.50;0.50;;;23.60;49.50;;;;;;6169519;28;82407;-60
2023/12/25 04:56:10;;;;;;;0.65;0.60;;;23.60;49.60;;;;;;6168703;28;83361;-60
2023/12/25 04:59:10;;;;;;;2.22;0.93;;;23.60;49.60;;;;;;6154018;28;83814;-60
2023/12/25 05:02:10;;;;;;;1.65;0.60;;;23.60;49.60;;;;;;6170037;28;80576;-61
2023/12/25 05:05:11;;;;;;;0.70;0.50;;;23.60;49.60;;;;;;6153583;28;81312;-62
2023/12/25 05:08:12;;;;;;;0.40;0.40;;;23.60;49.50;;;;;;6177265;28;83063;-62
2023/12/25 05:11:12;;;;;;;0.45;0.38;;;23.60;49.60;;;;;;6163464;28;81415;-61
2023/12/25 05:14:13;;;;;;;0.30;0.30;;;23.60;49.60;;;;;;6174490;28;83163;-61
2023/12/25 05:17:13;;;;;;;0.70;0.43;;;23.70;49.60;;;;;;6174488;28;82592;-61
2023/12/25 05:20:14;;;;;;;0.45;0.45;;;23.70;49.60;;;;;;6176202;28;80525;-61
2023/12/25 05:23:14;;;;;;;0.40;0.40;;;23.60;49.70;;;;;;6175048;28;82534;-61
2023/12/25 05:26:15;;;;;;;0.30;0.30;;;23.70;49.70;;;;;;6176932;28;80699;-61
2023/12/25 05:29:15;;;;;;;0.40;0.40;;;23.70;49.80;;;;;;6175317;28;81170;-62
2023/12/25 05:32:16;;;;;;;0.38;0.38;;;23.70;49.80;;;;;;6161640;28;80476;-61
2023/12/25 05:35:16;;;;;;;0.63;0.50;;;23.70;49.80;;;;;;6154173;28;81791;-61
2023/12/25 05:38:17;;;;;;;0.70;0.55;;;23.70;49.80;;;;;;6175453;28;80372;-61
2023/12/25 05:41:17;;;;;;;0.40;0.40;;;23.70;49.80;;;;;;6176967;28;80587;-62
2023/12/25 05:44:18;;;;;;;6.43;0.63;;;23.70;49.90;;;;;;6167812;28;80437;-61
2023/12/25 05:47:18;;;;;;;1.05;0.50;;;23.70;49.80;;;;;;6174887;28;80459;-61
2023/12/25 05:50:19;;;;;;;0.60;0.52;;;23.70;49.90;;;;;;6175505;28;80847;-62
2023/12/25 05:53:20;;;;;;;0.70;0.70;;;23.70;49.90;;;;;;6174672;28;80403;-61
2023/12/25 05:56:20;;;;;;;1.25;0.73;;;23.70;49.90;;;;;;6174950;28;85565;-57
2023/12/25 05:59:21;;;;;;;0.70;0.70;;;23.70;49.80;;;;;;6173900;28;81386;-57
2023/12/25 06:02:21;;;;;;;0.70;0.70;;;23.70;49.70;;;;;;6175187;28;85089;-59
2023/12/25 06:05:22;;;;;;;1.23;0.80;;;23.70;49.70;;;;;;6164675;28;80529;-58
2023/12/25 06:08:22;;;;;;;0.90;0.70;;;23.70;49.70;;;;;;6151832;28;80779;-59
2023/12/25 06:11:23;;;;;;;1.23;0.90;;;23.70;49.70;;;;;;6152261;28;80964;-58
2023/12/25 06:14:23;;;;;;;1.25;0.90;;;23.70;49.60;;;;;;6159275;28;80096;-65
2023/12/25 06:17:24;;;;;;;1.00;0.60;;;23.80;49.60;;;;;;6157420;28;80682;-66
2023/12/25 06:20:25;;;;;;;1.20;0.90;;;23.70;49.50;;;;;;6172501;28;80698;-67
2023/12/25 06:23:25;;;;;;;1.70;1.20;;;23.80;49.50;;;;;;6153622;28;80895;-68
2023/12/25 06:26:26;;;;;;;0.80;0.80;;;23.80;49.50;;;;;;6153366;28;81261;-67
2023/12/25 06:29:26;;;;;;;1.67;1.25;;;23.80;49.50;;;;;;6155819;28;81068;-65
2023/12/25 06:32:27;;;;;;;1.75;1.15;;;23.80;49.30;;;;;;6151744;28;81343;-57
2023/12/25 06:35:27;;;;;;;1.05;0.95;;;23.70;49.30;;;;;;6164069;28;81876;-58
2023/12/25 06:38:28;;;;;;;2.17;1.15;;;23.70;49.40;;;;;;6166078;28;80753;-59
2023/12/25 06:41:28;;;;;;;3.60;1.05;;;23.80;49.30;;;;;;6161103;28;80386;-56
2023/12/25 06:44:29;;;;;;;1.77;1.10;;;23.70;49.30;;;;;;6160278;28;81447;-58
2023/12/25 06:47:29;;;;;;;3.13;1.27;;;23.70;49.30;;;;;;6160941;28;81203;-55
2023/12/25 06:50:30;;;;;;;4.30;1.20;;;23.70;49.40;;;;;;6172965;28;80473;-56
2023/12/25 06:53:30;;;;;;;5.28;1.20;;;23.70;49.40;;;;;;6168226;28;80470;-59
2023/12/25 06:56:31;;;;;;;5.32;1.10;;;23.70;49.70;;;;;;6167343;28;80729;-58
2023/12/25 06:59:31;;;;;;;3.75;1.33;;;23.70;49.80;;;;;;6162093;28;83528;-58
2023/12/25 07:02:32;;;;;;;5.18;1.90;;;23.70;49.80;;;;;;6172186;28;80679;-58
2023/12/25 07:05:33;;;;;;;3.83;1.80;;;23.60;49.90;;;;;;6151254;28;80688;-61
2023/12/25 07:08:33;;;;;;;3.10;1.85;;;23.60;49.80;;;;;;6153573;28;80468;-60
2023/12/25 07:11:34;;;;;;;4.28;1.58;;;23.70;49.60;;;;;;6153960;28;80362;-57
2023/12/25 07:14:34;;;;;;;6.70;1.73;;;23.60;49.60;;;;;;6160764;28;81038;-55
2023/12/25 07:17:34;;;;;;;6.53;1.83;;;23.70;49.60;;;;;;6154815;28;80936;-55
2023/12/25 07:20:35;;;;;;;5.75;2.45;;;23.60;50.00;;;;;;6154835;28;80306;-55
2023/12/25 07:23:35;;;;;;;5.85;2.00;;;23.60;50.00;;;;;;6171221;28;80887;-58
2023/12/25 07:26:36;;;;;;;4.65;2.53;;;23.60;50.10;;;;;;6173548;28;80309;-59
2023/12/25 07:29:36;;;;;;;4.43;2.10;;;23.60;50.50;;;;;;6173192;28;81125;-59
2023/12/25 07:32:37;;;;;;;7.88;2.22;;;23.70;50.70;;;;;;6164727;28;80773;-58
2023/12/25 07:35:37;;;;;;;4.13;2.22;;;23.70;51.00;;;;;;6162385;28;81088;-57
2023/12/25 07:38:38;;;;;;;5.13;2.38;;;23.70;51.70;;;;;;6173193;28;80311;-59
2023/12/25 07:41:38;;;;;;;6.20;2.65;;;23.70;51.80;;;;;;6172625;28;80948;-57
2023/12/25 07:44:39;;;;;;;9.52;2.20;;;23.70;52.30;;;;;;6171226;28;80413;-58
2023/12/25 07:47:39;;;;;;;3.22;1.92;;;23.70;52.50;;;;;;6174498;28;80444;-56
2023/12/25 07:50:40;;;;;;;4.70;2.28;;;23.70;52.70;;;;;;6172279;28;80492;-57
2023/12/25 07:53:41;;;;;;;4.90;2.38;;;23.70;52.50;;;;;;6173789;28;80481;-56
2023/12/25 07:56:41;;;;;;;4.70;2.00;;;23.70;52.80;;;;;;6167013;28;83835;-59
2023/12/25 07:59:42;;;;;;;7.07;2.45;;;23.70;52.90;;;;;;6168666;28;81963;-55
2023/12/25 08:02:42;;;;;;;6.00;2.50;;;23.70;53.00;;;;;;6173705;28;80594;-58
2023/12/25 08:05:43;;;;;;;10.48;2.17;;;23.70;52.90;;;;;;6165490;28;80153;-57
2023/12/25 08:08:44;;;;;;;3.70;2.22;;;23.80;52.80;;;;;;6168394;28;82297;-59
2023/12/25 08:11:45;;;;;;;4.85;2.78;;;23.80;52.80;;;;;;6176780;28;80444;-57
2023/12/25 08:14:45;;;;;;;4.75;2.15;;;23.80;52.70;;;;;;6174589;28;80454;-57
2023/12/25 08:17:46;;;;;;;5.18;2.05;;;23.80;52.80;;;;;;6171293;28;80823;-57
2023/12/25 08:20:46;;;;;;;5.13;2.22;;;23.80;53.10;;;;;;6170181;28;81798;-55
2023/12/25 08:23:47;;;;;;;3.28;2.45;;;23.80;53.00;;;;;;6165943;28;81240;-57
2023/12/25 08:26:47;;;;;;;7.22;2.28;;;23.90;53.00;;;;;;6160165;28;82641;-55
2023/12/25 08:29:48;;;;;;;11.05;2.20;;;23.90;53.30;;;;;;6154783;28;80838;-58
2023/12/25 08:32:49;;;;;;;6.07;2.50;;;23.80;53.40;;;;;;6164961;28;80620;-57
2023/12/25 08:35:51;;;;;;;5.20;2.38;;;23.80;53.50;;;;;;6175217;28;80289;-58
2023/12/25 08:38:52;;;;;;;6.30;2.28;;;23.80;53.70;;;;;;6169799;28;83869;-55
2023/12/25 08:41:52;;;;;;;8.70;2.63;;;23.90;53.90;;;;;;6172600;28;80956;-53
2023/12/25 08:44:53;;;;;;;7.45;2.22;;;23.80;53.80;;;;;;6171861;28;81052;-55
2023/12/25 08:47:53;;;;;;;8.02;2.55;;;23.90;53.80;;;;;;6173573;28;80629;-53
2023/12/25 08:50:54;;;;;;;4.25;2.28;;;23.80;54.00;;;;;;6174565;28;80432;-51
2023/12/25 08:53:54;;;;;;;29.83;3.95;;;23.90;54.50;;;;;;6176599;28;81134;-66
2023/12/25 08:56:55;;;;;;;14.13;2.90;;;23.90;54.50;;;;;;6162982;28;80097;-59
2023/12/25 08:59:55;;;;;;;17.42;2.65;;;24.00;54.80;;;;;;6165978;28;80612;-61
2023/12/25 09:02:56;;;;;;;17.48;2.65;;;24.00;54.60;;;;;;6163457;28;80926;-61
2023/12/25 09:05:56;;;;;;;12.23;3.13;;;23.90;55.30;;;;;;6173825;28;82406;-55
2023/12/25 09:08:57;;;;;;;20.90;2.92;;;23.90;54.50;;;;;;6176474;28;80832;-57
2023/12/25 09:11:57;;;;;;;26.27;4.07;;;24.00;54.10;;;;;;6175561;28;80792;-59
2023/12/25 09:14:58;;;;;;;10.90;2.58;;;23.90;54.00;;;;;;6174139;28;82320;-60
2023/12/25 09:17:58;;;;;;;16.27;3.10;;;23.90;53.70;;;;;;6159518;28;81239;-52
2023/12/25 09:20:59;;;;;;;12.10;2.65;;;23.80;53.40;;;;;;6151955;28;80911;-56
2023/12/25 09:23:59;;;;;;;9.02;3.08;;;23.80;53.10;;;;;;6166495;28;88145;-55
2023/12/25 09:27:00;;;;;;;4.82;2.67;;;23.80;53.40;;;;;;6163125;28;80452;-57
2023/12/25 09:30:00;;;;;;;13.52;2.80;;;23.70;53.10;;;;;;6153092;28;80764;-56
2023/12/25 09:33:01;;;;;;;14.07;2.75;;;23.70;53.40;;;;;;6155463;28;80607;-58
2023/12/25 09:36:02;;;;;;;11.63;2.70;;;23.70;53.20;;;;;;6171308;28;80549;-53
2023/12/25 09:39:03;;;;;;;11.00;2.60;;;23.70;53.40;;;;;;6171916;28;81161;-58
2023/12/25 09:42:04;;;;;;;11.02;3.08;;;23.60;53.20;;;;;;6169845;28;80917;-59
2023/12/25 09:45:05;;;;;;;9.38;2.65;;;23.60;53.50;;;;;;6162159;28;80489;-60
2023/12/25 09:48:05;;;;;;;8.88;2.60;;;23.60;53.40;;;;;;6161138;28;80722;-59
2023/12/25 09:51:07;;;;;;;7.25;2.72;;;23.60;53.60;;;;;;6168784;28;80314;-59
2023/12/25 09:54:07;;;;;;;70.30;36.25;;;23.60;53.80;;;;;;6171837;28;81477;-58
2023/12/25 09:57:08;;;;;;;103.85;53.63;;;23.60;53.60;;;;;;6170356;28;82837;-52
2023/12/25 10:00:08;;;;;;;117.40;62.10;;;23.60;53.60;;;;;;6172249;28;83185;-50
2023/12/25 10:03:09;;;;;;;125.97;60.15;;;23.60;53.90;;;;;;6167360;28;83056;-51
2023/12/25 10:06:09;;;;;;;178.15;62.92;;;23.60;54.50;;;;;;6142180;28;88050;-48
2023/12/25 10:09:10;;;;;;;143.07;50.50;;;23.60;54.00;;;;;;6152664;28;83602;-48
2023/12/25 10:12:10;;;;;;;104.25;44.05;;;23.60;54.30;;;;;;6149157;28;85379;-50
2023/12/25 10:15:11;;;;;;;73.78;36.08;;;23.60;54.40;;;;;;6154506;28;84230;-54
2023/12/25 10:18:11;;;;;;;67.65;31.38;;;23.60;54.20;;;;;;6130456;28;83975;-55
2023/12/25 10:21:12;;;;;;;57.75;29.35;;;23.60;54.30;;;;;;6148442;28;85013;-56
2023/12/25 10:24:12;;;;;;;57.55;26.98;;;23.60;54.30;;;;;;6150473;28;83716;-56
2023/12/25 10:27:13;;;;;;;57.75;27.00;;;23.60;54.40;;;;;;6150009;28;85313;-54
2023/12/25 10:30:13;;;;;;;48.85;24.48;;;23.60;54.40;;;;;;6146996;28;83732;-55
2023/12/25 10:33:15;;;;;;;60.38;25.38;;;23.60;53.90;;;;;;6146425;28;83688;-56
2023/12/25 10:36:15;;;;;;;96.65;40.45;;;23.60;54.10;;;;;;6155962;28;86658;-53
2023/12/25 10:39:16;;;;;;;242.85;104.00;;;23.60;54.20;;;;;;6157572;28;83476;-57
2023/12/25 10:42:16;;;;;;;341.98;147.52;;;23.70;54.10;;;;;;6157343;28;85766;-58
2023/12/25 10:45:21;;;;;;;487.38;219.60;;;23.70;53.90;;;;;;6158425;28;86498;-58
2023/12/25 10:48:21;;;;;;;510.52;235.55;;;23.70;53.90;;;;;;6145791;28;86508;-59
2023/12/25 10:51:22;;;;;;;551.08;261.55;;;23.70;53.90;;;;;;6149835;28;85986;-59
2023/12/25 10:54:22;;;;;;;583.28;281.48;;;23.70;53.80;;;;;;6155246;28;87154;-58
2023/12/25 10:57:23;;;;;;;622.72;301.27;;;23.70;53.80;;;;;;6160368;28;86564;-53
2023/12/25 11:00:24;;;;;;;600.25;290.73;;;23.70;53.70;;;;;;6155522;28;86296;-53
2023/12/25 11:03:24;;;;;;;612.53;295.90;;;23.70;54.30;;;;;;6168117;28;86407;-55
2023/12/25 11:06:25;;;;;;;570.13;268.83;;;23.70;54.20;;;;;;6168309;28;86544;-55
2023/12/25 11:09:25;;;;;;;508.75;231.80;;;23.70;54.20;;;;;;6153049;28;85763;-58
2023/12/25 11:12:26;;;;;;;476.42;210.55;;;23.80;54.10;;;;;;6152519;28;88814;-52
2023/12/25 11:15:26;;;;;;;473.10;194.20;;;23.80;54.10;;;;;;6154692;28;85504;-54
2023/12/25 11:18:27;;;;;;;426.65;189.82;;;23.80;53.80;;;;;;6146028;28;85649;-54
2023/12/25 11:21:28;;;;;;;392.42;168.60;;;23.80;53.60;;;;;;6145730;28;85435;-55
2023/12/25 11:24:29;;;;;;;364.92;152.93;;;23.80;53.50;;;;;;6159767;28;86118;-54
2023/12/25 11:27:29;;;;;;;279.25;123.85;;;23.90;72.30;;;;;;6146456;28;85766;-54
2023/12/25 11:30:30;;;;;;;149.27;63.15;;;23.20;49.30;;;;;;6152359;28;85759;-53
2023/12/25 11:33:30;;;;;;;41.55;18.95;;;23.20;50.20;;;;;;6168727;28;85875;-55
2023/12/25 11:36:31;;;;;;;15.23;7.05;;;22.50;46.20;;;;;;6169730;28;83513;-51
2023/12/25 11:39:31;;;;;;;14.95;6.10;;;21.80;46.50;;;;;;6169421;28;83230;-55
2023/12/25 11:42:32;;;;;;;16.70;6.63;;;21.40;49.40;;;;;;6177943;28;83477;-59
2023/12/25 11:45:32;;;;;;;9.00;4.55;;;21.40;49.20;;;;;;6169784;28;81872;-50
2023/12/25 11:48:33;;;;;;;8.90;1.88;;;21.10;49.80;;;;;;6160871;28;80647;-52
2023/12/25 11:51:33;;;;;;;2.13;1.10;;;20.90;48.50;;;;;;6159748;28;82908;-51
2023/12/25 11:54:34;;;;;;;2.85;1.30;;;20.50;48.00;;;;;;6160123;28;81893;-56
2023/12/25 11:57:34;;;;;;;2.97;1.42;;;20.20;49.60;;;;;;6158730;28;80645;-55
2023/12/25 12:00:35;;;;;;;2.22;0.80;;;20.20;50.20;;;;;;6160529;28;80284;-54
2023/12/25 12:03:36;;;;;;;1.63;1.33;;;19.90;49.60;;;;;;6168147;28;81567;-55
2023/12/25 12:06:36;;;;;;;1.65;0.85;;;19.80;51.10;;;;;;6162238;28;80385;-57
2023/12/25 12:09:36;;;;;;;3.65;1.20;;;19.90;51.20;;;;;;6162186;28;80592;-60
2023/12/25 12:12:37;;;;;;;1.95;0.85;;;20.20;51.70;;;;;;6173597;28;80563;-59
2023/12/25 12:15:37;;;;;;;2.40;1.05;;;20.20;49.90;;;;;;6172130;28;84124;-58
2023/12/25 12:18:38;;;;;;;2.05;0.80;;;20.10;50.80;;;;;;6177628;28;82547;-60
2023/12/25 12:21:39;;;;;;;5.68;0.82;;;20.20;50.00;;;;;;6170220;28;80627;-60
2023/12/25 12:24:39;;;;;;;3.92;0.60;;;19.90;50.40;;;;;;6172255;28;81485;-61
2023/12/25 12:27:40;;;;;;;1.15;0.77;;;20.00;50.80;;;;;;6172178;28;80728;-62
2023/12/25 12:30:40;;;;;;;2.35;0.90;;;20.20;51.10;;;;;;6161427;28;80844;-61
2023/12/25 12:33:40;;;;;;;1.42;1.00;;;20.30;50.30;;;;;;6170179;28;81052;-59
2023/12/25 12:36:41;;;;;;;0.70;0.50;;;20.20;50.50;;;;;;6177549;28;80917;-61
2023/12/25 12:39:41;;;;;;;0.98;0.70;;;20.30;50.80;;;;;;6162566;28;81544;-61
2023/12/25 12:42:42;;;;;;;1.15;0.50;;;20.30;50.60;;;;;;6168907;28;82221;-62
2023/12/25 12:45:42;;;;;;;1.40;0.68;;;20.10;49.30;;;;;;6178138;28;81995;-60
2023/12/25 12:48:43;;;;;;;3.22;0.60;;;20.20;51.20;;;;;;6166051;28;80582;-57
2023/12/25 12:51:43;;;;;;;3.08;0.60;;;20.60;52.20;;;;;;6174065;28;83131;-59
2023/12/25 12:54:45;;;;;;;1.33;0.50;;;21.00;52.10;;;;;;6160085;28;80887;-61
2023/12/25 12:57:45;;;;;;;1.92;0.88;;;21.50;51.80;;;;;;6177568;28;80711;-59
2023/12/25 13:00:46;;;;;;;4.63;0.65;;;21.50;52.50;;;;;;6163463;28;81097;-55
2023/12/25 13:03:48;;;;;;;3.28;0.60;;;;;;;;;;6167297;28;80994;-51
2023/12/25 13:06:49;;;;;;;1.13;0.70;;;21.70;67.10;;;;;;6173580;28;80611;-51
2023/12/25 13:09:49;;;;;;;4.82;1.08;;;21.80;52.70;;;;;;6173227;28;83243;-51
2023/12/25 13:12:50;;;;;;;1.88;0.70;;;21.90;52.70;;;;;;6173292;28;81084;-48
2023/12/25 13:15:50;;;;;;;7.45;1.85;;;22.00;52.90;;;;;;6177364;28;80536;-50
2023/12/25 13:18:50;;;;;;;5.55;1.10;;;22.10;52.60;;;;;;6177099;28;80903;-53
2023/12/25 13:21:51;;;;;;;9.98;3.75;;;22.20;52.90;;;;;;6176933;28;80417;-55
2023/12/25 13:24:51;;;;;;;16.60;5.30;;;22.20;53.10;;;;;;6177546;28;80437;-55
2023/12/25 13:27:53;;;;;;;25.20;6.30;;;22.30;53.70;;;;;;6174443;28;82662;-58
2023/12/25 13:30:53;;;;;;;17.65;7.25;;;22.30;56.10;;;;;;6174893;28;80494;-59
2023/12/25 13:33:54;;;;;;;19.92;6.93;;;22.40;54.70;;;;;;6166789;28;81397;-55
2023/12/25 13:36:54;;;;;;;19.63;8.05;;;22.90;72.10;;;;;;6176203;28;80527;-56
2023/12/25 13:39:55;;;;;;;24.13;7.80;;;22.60;54.20;;;;;;6176422;28;80629;-55
2023/12/25 13:42:55;;;;;;;20.73;6.43;;;22.60;54.70;;;;;;6176043;28;80880;-54
2023/12/25 13:45:56;;;;;;;17.50;5.28;;;22.60;54.60;;;;;;6176344;28;81105;-55
2023/12/25 13:48:56;;;;;;;10.25;5.20;;;22.70;54.80;;;;;;6169187;28;81045;-55
2023/12/25 13:51:57;;;;;;;10.02;4.07;;;22.70;55.00;;;;;;6168578;28;80931;-55
2023/12/25 13:54:57;;;;;;;9.40;3.35;;;22.70;54.30;;;;;;6176312;28;80888;-52
2023/12/25 13:57:58;;;;;;;6.03;2.72;;;22.80;53.60;;;;;;6176754;28;81327;-59
2023/12/25 14:00:58;;;;;;;6.10;2.20;;;22.90;53.20;;;;;;6174841;28;80315;-56
2023/12/25 14:03:59;;;;;;;4.95;2.40;;;22.80;53.30;;;;;;6173726;28;83443;-56
2023/12/25 14:06:59;;;;;;;4.70;2.20;;;22.90;52.90;;;;;;6162714;28;81008;-55
2023/12/25 14:10:00;;;;;;;5.53;2.35;;;23.00;52.80;;;;;;6159776;28;80525;-56
2023/12/25 14:13:00;;;;;;;7.22;2.33;;;23.00;52.90;;;;;;6173621;28;81536;-56
2023/12/25 14:16:01;;;;;;;6.72;1.95;;;23.00;53.20;;;;;;6171395;28;80759;-57
2023/12/25 14:19:01;;;;;;;4.82;2.25;;;23.10;53.40;;;;;;6165288;28;80484;-56
2023/12/25 14:22:02;;;;;;;4.47;2.00;;;23.10;53.60;;;;;;6164740;28;83061;-60
2023/12/25 14:25:02;;;;;;;10.95;2.17;;;23.10;53.90;;;;;;6166129;28;81654;-57
2023/12/25 14:28:03;;;;;;;4.53;2.10;;;23.20;54.00;;;;;;6165944;28;80837;-56
2023/12/25 14:31:03;;;;;;;10.30;1.90;;;23.20;53.90;;;;;;6156999;28;82720;-51
2023/12/25 14:34:04;;;;;;;6.20;1.75;;;23.20;54.30;;;;;;6172067;28;81494;-56
2023/12/25 14:37:05;;;;;;;3.17;1.70;;;23.20;54.40;;;;;;6172500;28;82979;-52
2023/12/25 14:40:06;;;;;;;5.30;2.00;;;23.30;54.40;;;;;;6172127;28;81085;-52
2023/12/25 14:43:06;;;;;;;3.22;1.48;;;23.30;54.40;;;;;;6170891;28;80602;-53
2023/12/25 14:46:07;;;;;;;3.75;1.70;;;23.30;54.50;;;;;;6168606;28;80423;-54
2023/12/25 14:49:07;;;;;;;2.83;1.40;;;23.30;54.60;;;;;;6154898;28;82944;-51
2023/12/25 14:52:08;;;;;;;3.60;1.90;;;23.40;55.00;;;;;;6159117;28;86410;-53
2023/12/25 14:55:08;;;;;;;5.63;1.40;;;23.40;55.00;;;;;;6154426;28;80847;-53
2023/12/25 14:58:09;;;;;;;5.38;1.60;;;23.40;55.10;;;;;;6163517;28;83579;-54
2023/12/25 15:01:09;;;;;;;3.17;1.63;;;23.50;55.10;;;;;;6156225;28;81050;-51
2023/12/25 15:04:10;;;;;;;4.22;1.73;;;23.50;55.10;;;;;;6165019;28;86233;-56
2023/12/25 15:07:10;;;;;;;5.60;2.10;;;23.50;55.10;;;;;;6169370;28;84847;-53
2023/12/25 15:10:11;;;;;;;3.35;1.70;;;23.40;55.20;;;;;;6165705;28;82507;-53
2023/12/25 15:13:11;;;;;;;4.10;1.75;;;23.40;55.50;;;;;;6171390;28;80140;-52
2023/12/25 15:16:12;;;;;;;3.20;1.70;;;23.40;55.50;;;;;;6169179;28;80334;-52
2023/12/25 15:19:12;;;;;;;2.78;1.40;;;23.50;55.70;;;;;;6173363;28;86283;-53
2023/12/25 15:22:13;;;;;;;3.75;1.90;;;23.50;56.00;;;;;;6170689;28;85240;-51
2023/12/25 15:25:13;;;;;;;2.90;1.77;;;23.50;56.00;;;;;;6172700;28;84078;-51
2023/12/25 15:28:14;;;;;;;2.95;1.80;;;23.50;56.30;;;;;;6171102;28;80327;-52
2023/12/25 15:31:14;;;;;;;3.33;1.55;;;23.50;56.50;;;;;;6166816;28;84440;-54
2023/12/25 15:34:15;;;;;;;2.60;1.70;;;23.50;56.10;;;;;;6170887;28;80513;-52